ORER/EBL METAR and TAF weather

Enter ICAO airport designator
Station Type Date Time Source
ORER METAR 2022/12/10 01:00 UTC NOAA

ORER 100100Z VRB02KT 8000 NSC 07/02 Q1022


Station Type Date Time Source
ORER Decoded METAR 2022/12/10 01:00 UTC NOAA

Station name not available
Dec 09, 2022 - 08:00 PM EST / 2022.12.10 0100 UTC
Wind: Variable at 2 MPH (2 KT):0
Visibility: 4 mile(s):0
Temperature: 44 F (7 C)
Dew Point: 35 F (2 C)
Relative Humidity: 70%
Pressure (altimeter): 30.18 in. Hg (1022 hPa)
ob: ORER 100100Z VRB02KT 8000 NSC 07/02 Q1022
cycle: 1

Station Type Date Time Source
ORER TAF 2022/12/09 18:59 UTC NOAA

TAF ORER 091700Z 0918/1018 VRB02KT 7000 NSC
BECMG 1008/1010 22008KT

Example: see airport list